createdAt,value
2022-10-06T00:01:37.662Z,7.83
2022-10-06T00:03:37.646Z,7.75
2022-10-06T00:05:37.590Z,7.7
2022-10-06T00:07:37.657Z,7.68
2022-10-06T00:09:37.588Z,7.74
2022-10-06T00:12:11.746Z,7.68
2022-10-06T00:14:11.784Z,7.62
2022-10-06T00:16:11.866Z,7.69
2022-10-06T00:18:11.754Z,7.73
2022-10-06T00:20:11.744Z,7.74
2022-10-06T00:22:11.757Z,7.76
2022-10-06T00:24:11.756Z,7.83
2022-10-06T00:27:17.977Z,7.77
2022-10-06T00:29:17.968Z,7.73
2022-10-06T00:31:18.029Z,7.62
2022-10-06T00:33:17.951Z,7.65
2022-10-06T00:35:17.956Z,7.6
2022-10-06T00:37:17.952Z,7.54
2022-10-06T00:39:17.953Z,7.5
2022-10-06T00:42:26.480Z,7.47
2022-10-06T00:44:26.516Z,7.51
2022-10-06T00:46:26.549Z,7.43
2022-10-06T00:48:26.922Z,7.45
2022-10-06T00:50:26.487Z,7.42
2022-10-06T00:52:26.495Z,7.42
2022-10-06T00:54:26.483Z,7.44
2022-10-06T00:58:01.743Z,7.54
2022-10-06T01:00:01.757Z,7.55
2022-10-06T01:02:01.729Z,7.44
2022-10-06T01:04:01.703Z,7.39
2022-10-06T01:06:01.693Z,7.42
2022-10-06T01:08:01.728Z,7.39
2022-10-06T01:10:01.699Z,7.38
2022-10-06T01:12:46.551Z,7.3
2022-10-06T01:14:46.494Z,7.2
2022-10-06T01:16:46.574Z,7.3
2022-10-06T01:18:46.483Z,7.28
2022-10-06T01:20:46.479Z,7.35
2022-10-06T01:22:46.509Z,7.25
2022-10-06T01:24:46.534Z,7.22
2022-10-06T01:28:32.067Z,7.15
2022-10-06T01:30:31.597Z,7.28
2022-10-06T01:32:31.635Z,7.28
2022-10-06T01:34:31.597Z,7.28
2022-10-06T01:36:31.559Z,7.22
2022-10-06T01:38:32.013Z,7.22
2022-10-06T01:40:31.546Z,7.19
2022-10-06T01:42:57.329Z,7.02
2022-10-06T01:44:57.366Z,7.06
2022-10-06T01:46:57.334Z,6.99
2022-10-06T01:48:57.376Z,7.01
2022-10-06T01:50:57.324Z,6.99
2022-10-06T01:52:57.377Z,7.03
2022-10-06T01:54:57.323Z,7.06
2022-10-06T01:56:57.307Z,7.08
2022-10-06T01:58:56.374Z,6.97
2022-10-06T02:00:56.359Z,6.88
2022-10-06T02:02:56.356Z,6.83
2022-10-06T02:04:56.407Z,6.89
2022-10-06T02:06:56.355Z,6.91
2022-10-06T02:08:56.381Z,6.93
2022-10-06T02:10:56.354Z,6.85
2022-10-06T02:13:37.321Z,6.82
2022-10-06T02:15:37.339Z,6.93
2022-10-06T02:17:37.270Z,6.92
2022-10-06T02:19:37.276Z,6.84
2022-10-06T02:21:37.300Z,6.84
2022-10-06T02:23:37.267Z,6.87
2022-10-06T02:25:37.270Z,6.76
2022-10-06T02:28:34.584Z,6.84
2022-10-06T02:30:34.330Z,6.82
2022-10-06T02:32:34.333Z,6.84
2022-10-06T02:34:34.340Z,6.83
2022-10-06T02:36:34.327Z,6.79
2022-10-06T02:38:34.364Z,6.62
2022-10-06T02:40:34.284Z,6.47
2022-10-06T02:44:24.584Z,6.68
2022-10-06T02:46:24.611Z,6.72
2022-10-06T02:48:24.614Z,6.72
2022-10-06T02:50:24.522Z,6.65
2022-10-06T02:52:24.579Z,6.7
2022-10-06T02:54:24.517Z,6.5
2022-10-06T02:56:24.505Z,6.44
2022-10-06T02:59:38.664Z,6.05
2022-10-06T03:01:38.737Z,6.32
2022-10-06T03:03:38.633Z,6.43
2022-10-06T03:05:38.629Z,6.53
2022-10-06T03:07:38.624Z,6.41
2022-10-06T03:09:38.694Z,6.26
2022-10-06T03:11:38.614Z,6.39
2022-10-06T03:13:56.443Z,6.2
2022-10-06T03:15:56.493Z,6.25
2022-10-06T03:17:56.435Z,6.3
2022-10-06T03:19:56.457Z,6.32
2022-10-06T03:21:56.439Z,6.4
2022-10-06T03:23:56.433Z,6.39
2022-10-06T03:25:56.537Z,6.34
2022-10-06T03:27:56.455Z,6.38
2022-10-06T03:29:34.999Z,6.39
2022-10-06T03:31:35.018Z,6.39
2022-10-06T03:33:35.006Z,6.4
2022-10-06T03:35:34.999Z,6.41
2022-10-06T03:37:35.004Z,6.4
2022-10-06T03:39:35.060Z,6.33
2022-10-06T03:41:35.119Z,6.3
2022-10-06T03:44:12.525Z,6.28
2022-10-06T03:46:12.544Z,6.28
2022-10-06T03:48:12.520Z,6.41
2022-10-06T03:50:12.525Z,6.26
2022-10-06T03:52:12.569Z,6.21
2022-10-06T03:54:12.520Z,6.25
2022-10-06T03:56:12.528Z,6.29
2022-10-06T03:58:12.543Z,6.23
2022-10-06T04:00:12.356Z,6.27
2022-10-06T04:02:12.376Z,6.31
2022-10-06T04:04:12.356Z,6.23
2022-10-06T04:06:12.347Z,6.25
2022-10-06T04:08:12.388Z,6.14
2022-10-06T04:10:12.337Z,6.18
2022-10-06T04:12:12.361Z,6.22
2022-10-06T04:14:40.850Z,6.11
2022-10-06T04:16:40.933Z,6.18
2022-10-06T04:18:40.842Z,6.1
2022-10-06T04:20:40.823Z,5.94
2022-10-06T04:22:41.011Z,6.11
2022-10-06T04:24:40.822Z,6.07
2022-10-06T04:26:40.821Z,6.05
2022-10-06T04:30:14.135Z,5.78
2022-10-06T04:32:14.019Z,6.03
2022-10-06T04:34:14.025Z,6.11
2022-10-06T04:36:13.996Z,6.17
2022-10-06T04:38:14.014Z,6.11
2022-10-06T04:40:13.970Z,6.15
2022-10-06T04:42:14.023Z,6.16
2022-10-06T04:45:25.958Z,6.13
2022-10-06T04:47:25.923Z,6.19
2022-10-06T04:49:25.872Z,6.31
2022-10-06T04:51:25.878Z,6.44
2022-10-06T04:53:25.913Z,6.39
2022-10-06T04:55:25.878Z,6.42
2022-10-06T04:57:25.879Z,6.47
2022-10-06T05:00:57.301Z,6.48
2022-10-06T05:02:57.020Z,6.74
2022-10-06T05:04:56.967Z,6.61
2022-10-06T05:06:56.976Z,6.48
2022-10-06T05:08:57.025Z,6.59
2022-10-06T05:10:56.956Z,6.76
2022-10-06T05:12:56.999Z,6.32
2022-10-06T05:15:48.744Z,6.13
2022-10-06T05:17:48.925Z,6.34
2022-10-06T05:19:48.741Z,6.4
2022-10-06T05:21:48.728Z,6.61
2022-10-06T05:23:48.799Z,7.34
2022-10-06T05:25:48.732Z,8.17
2022-10-06T05:27:48.852Z,8
2022-10-06T05:31:09.391Z,8.21
2022-10-06T05:33:09.529Z,8.29
2022-10-06T05:35:09.388Z,7.67
2022-10-06T05:37:09.423Z,7.37
2022-10-06T05:39:09.378Z,7.18
2022-10-06T05:41:09.380Z,7.37
2022-10-06T05:43:09.420Z,7.6
2022-10-06T05:45:29.546Z,8.16
2022-10-06T05:47:29.533Z,8.44
2022-10-06T05:49:29.573Z,8.63
2022-10-06T05:51:31.103Z,8.73
2022-10-06T05:53:29.566Z,8.65
2022-10-06T05:55:29.536Z,8.61
2022-10-06T05:57:29.576Z,8.07
2022-10-06T05:59:29.532Z,8.02
2022-10-06T06:01:17.405Z,7.97
2022-10-06T06:03:17.373Z,7.82
2022-10-06T06:05:17.445Z,7.78
2022-10-06T06:07:17.335Z,7.85
2022-10-06T06:09:17.341Z,7.83
2022-10-06T06:11:17.332Z,7.92
2022-10-06T06:13:17.341Z,7.83
2022-10-06T06:16:15.308Z,7.71
2022-10-06T06:18:15.188Z,7.66
2022-10-06T06:20:15.225Z,7.8
2022-10-06T06:22:15.222Z,7.69
2022-10-06T06:24:15.177Z,7.88
2022-10-06T06:26:15.219Z,7.91
2022-10-06T06:28:15.226Z,7.91
2022-10-06T06:31:44.116Z,8.21
2022-10-06T06:33:43.992Z,8.63
2022-10-06T06:35:44.022Z,8.46
2022-10-06T06:37:44.058Z,8.54
2022-10-06T06:39:43.989Z,9.11
2022-10-06T06:41:44.043Z,9.49
2022-10-06T06:43:43.994Z,9.21
2022-10-06T06:46:32.476Z,9.02
2022-10-06T06:48:32.781Z,9.47
2022-10-06T06:50:32.268Z,9.15
2022-10-06T06:52:32.291Z,9.22
2022-10-06T06:54:32.308Z,9.36
2022-10-06T06:56:32.276Z,9.25
2022-10-06T06:58:32.768Z,9.02
2022-10-06T07:01:35.740Z,9.3
2022-10-06T07:03:59.254Z,9.32
2022-10-06T07:05:35.583Z,9.18
2022-10-06T07:07:35.627Z,9.31
2022-10-06T07:09:35.606Z,9.11
2022-10-06T07:11:35.622Z,9.02
2022-10-06T07:13:35.582Z,9.08
2022-10-06T07:17:15.725Z,9.52
2022-10-06T07:19:15.680Z,9.5
2022-10-06T07:21:15.685Z,9.58
2022-10-06T07:23:15.729Z,9.61
2022-10-06T07:25:15.715Z,9.49
2022-10-06T07:27:15.688Z,9.89
2022-10-06T07:29:15.692Z,10.25
2022-10-06T07:32:20.421Z,10.47
2022-10-06T07:34:20.389Z,10.17
2022-10-06T07:36:20.394Z,10.19
2022-10-06T07:38:20.510Z,10.09
2022-10-06T07:40:20.410Z,10.24
2022-10-06T07:42:20.376Z,10.77
2022-10-06T07:44:20.391Z,10.6
2022-10-06T07:46:49.758Z,10.74
2022-10-06T07:48:49.667Z,10.65
2022-10-06T07:50:49.673Z,10.59
2022-10-06T07:52:49.673Z,10.7
2022-10-06T07:54:49.710Z,11.31
2022-10-06T07:56:49.705Z,10.92
2022-10-06T07:58:49.674Z,10.75
2022-10-06T08:00:49.826Z,11.31
2022-10-06T08:02:22.779Z,11.52
2022-10-06T08:04:22.758Z,11.53
2022-10-06T08:06:22.769Z,11.68
2022-10-06T08:08:22.753Z,11.88
2022-10-06T08:10:22.793Z,12.17
2022-10-06T08:12:22.769Z,12.25
2022-10-06T08:14:22.737Z,12.4
2022-10-06T08:17:09.705Z,12.19
2022-10-06T08:19:09.704Z,12.66
2022-10-06T08:21:09.728Z,12.62
2022-10-06T08:23:09.697Z,13.17
2022-10-06T08:25:10.081Z,13.05
2022-10-06T08:27:09.761Z,13.65
2022-10-06T08:29:09.703Z,13.82
2022-10-06T08:31:09.744Z,13.72
2022-10-06T08:32:45.896Z,13.81
2022-10-06T08:34:45.948Z,14.41
2022-10-06T08:36:56.885Z,14.27
2022-10-06T08:38:45.895Z,14.67
2022-10-06T08:40:45.947Z,15.07
2022-10-06T08:42:45.886Z,15.03
2022-10-06T08:44:45.908Z,15.38
2022-10-06T08:48:24.884Z,14.43
2022-10-06T08:50:24.863Z,15
2022-10-06T08:52:24.915Z,15.59
2022-10-06T08:54:24.870Z,15.49
2022-10-06T08:56:24.904Z,15.66
2022-10-06T08:58:24.862Z,15.78
2022-10-06T09:00:24.934Z,16.22
2022-10-06T09:03:04.363Z,16.45
2022-10-06T09:05:04.365Z,16
2022-10-06T09:07:06.525Z,16.48
2022-10-06T09:09:04.399Z,16.62
2022-10-06T09:11:04.354Z,16.12
2022-10-06T09:13:04.355Z,16.86
2022-10-06T09:15:04.387Z,16.7
2022-10-06T09:18:02.227Z,16.81
2022-10-06T09:20:02.455Z,16.93
2022-10-06T09:22:02.165Z,17.37
2022-10-06T09:24:02.154Z,17.55
2022-10-06T09:26:02.178Z,17.68
2022-10-06T09:28:02.189Z,17.71
2022-10-06T09:30:04.201Z,17.83
2022-10-06T09:33:42.944Z,17.95
2022-10-06T09:35:42.926Z,18.14
2022-10-06T09:37:42.916Z,18.28
2022-10-06T09:39:42.938Z,18.34
2022-10-06T09:41:42.918Z,18.01
2022-10-06T09:43:42.914Z,18.25
2022-10-06T09:45:42.929Z,18.4
2022-10-06T09:48:19.937Z,18.67
2022-10-06T09:50:18.649Z,18.33
2022-10-06T09:52:18.494Z,18.03
2022-10-06T09:54:18.475Z,17.78
2022-10-06T09:56:18.492Z,18.34
2022-10-06T09:58:18.548Z,18.64
2022-10-06T10:00:18.483Z,18.46
2022-10-06T10:04:08.871Z,18.86
2022-10-06T10:05:51.647Z,18.92
2022-10-06T10:07:51.577Z,18.86
2022-10-06T10:09:51.594Z,19.28
2022-10-06T10:11:51.579Z,19.03
2022-10-06T10:13:51.562Z,18.44
2022-10-06T10:15:51.629Z,18.76
2022-10-06T10:18:45.582Z,19.02
2022-10-06T10:20:45.609Z,18.89
2022-10-06T10:22:45.579Z,18.31
2022-10-06T10:24:45.599Z,18.48
2022-10-06T10:26:45.559Z,19.18
2022-10-06T10:28:45.571Z,19.55
2022-10-06T10:30:45.556Z,19.48
2022-10-06T10:34:25.051Z,19.02
2022-10-06T10:36:15.729Z,19.18
2022-10-06T10:38:15.748Z,19.42
2022-10-06T10:40:15.760Z,19.43
2022-10-06T10:42:15.762Z,19.25
2022-10-06T10:44:15.739Z,19.73
2022-10-06T10:46:15.765Z,19.87
2022-10-06T10:48:58.554Z,20.01
2022-10-06T10:50:58.525Z,19.96
2022-10-06T10:52:58.610Z,20.05
2022-10-06T10:54:59.157Z,20.12
2022-10-06T10:56:58.513Z,19.9
2022-10-06T10:58:58.558Z,19.44
2022-10-06T11:00:58.547Z,19.62
2022-10-06T11:04:19.573Z,19.35
2022-10-06T11:06:19.539Z,19.42
2022-10-06T11:08:19.588Z,19.57
2022-10-06T11:10:19.562Z,19.4
2022-10-06T11:12:19.539Z,19.48
2022-10-06T11:14:19.588Z,19.6
2022-10-06T11:16:19.595Z,19.83
2022-10-06T11:19:42.225Z,20.04
2022-10-06T11:21:42.200Z,20.22
2022-10-06T11:23:42.271Z,20.25
2022-10-06T11:25:42.236Z,20.16
2022-10-06T11:27:42.185Z,20.1
2022-10-06T11:29:42.284Z,20.54
2022-10-06T11:31:42.233Z,20.4
2022-10-06T11:34:30.362Z,20.59
2022-10-06T11:36:30.399Z,20.62
2022-10-06T11:38:30.360Z,20.45
2022-10-06T11:40:30.349Z,20.76
2022-10-06T11:44:30.346Z,19.99
2022-10-06T11:46:31.719Z,20.29
2022-10-06T11:50:10.531Z,20.49
2022-10-06T11:52:10.472Z,20.23
2022-10-06T11:54:10.455Z,20.62
2022-10-06T11:56:10.454Z,20.47
2022-10-06T12:00:10.533Z,20.66
2022-10-06T12:02:10.560Z,20.7
2022-10-06T12:05:00.231Z,20.63
2022-10-06T12:06:59.787Z,20.56
2022-10-06T12:08:59.707Z,20.84
2022-10-06T12:10:59.727Z,20.22
2022-10-06T12:13:06.975Z,20.42
2022-10-06T12:17:11.633Z,20.55
2022-10-06T12:20:25.635Z,20.48
2022-10-06T12:22:25.601Z,20.71
2022-10-06T12:24:25.592Z,20.85
2022-10-06T12:26:25.599Z,21.18
2022-10-06T12:28:25.694Z,21.32
2022-10-06T12:30:25.622Z,20.8
2022-10-06T12:32:25.653Z,21.06
2022-10-06T12:35:19.052Z,21.04
2022-10-06T12:37:19.011Z,21.28
2022-10-06T12:39:19.021Z,21.52
2022-10-06T12:41:19.031Z,21.58
2022-10-06T12:43:19.023Z,21.55
2022-10-06T12:45:19.731Z,21.17
2022-10-06T12:47:19.137Z,21.32
2022-10-06T12:50:17.893Z,21.37
2022-10-06T12:52:17.891Z,21.39
2022-10-06T12:54:17.886Z,21.33
2022-10-06T12:56:17.897Z,21.06
2022-10-06T12:58:17.931Z,20.86
2022-10-06T13:00:17.933Z,20.98
2022-10-06T13:02:17.946Z,21.31
2022-10-06T13:05:41.069Z,21.23
2022-10-06T13:07:41.010Z,21.21
2022-10-06T13:09:41.023Z,21.09
2022-10-06T13:11:41.007Z,20.86
2022-10-06T13:13:41.047Z,21.03
2022-10-06T13:15:41.025Z,21.15
2022-10-06T13:17:41.012Z,21.19
2022-10-06T13:20:55.056Z,20.85
2022-10-06T13:22:54.865Z,20.95
2022-10-06T13:24:54.898Z,21.21
2022-10-06T13:26:54.839Z,21.01
2022-10-06T13:28:54.832Z,21.03
2022-10-06T13:30:54.990Z,20.79
2022-10-06T13:32:54.882Z,20.9
2022-10-06T13:35:36.545Z,20.99
2022-10-06T13:37:36.542Z,20.85
2022-10-06T13:39:36.545Z,20.76
2022-10-06T13:41:36.503Z,20.59
2022-10-06T13:43:39.569Z,20.75
2022-10-06T13:45:36.500Z,20.81
2022-10-06T13:47:36.573Z,20.65
2022-10-06T13:49:36.485Z,20.62
2022-10-06T13:50:45.918Z,20.65
2022-10-06T13:52:45.904Z,20.52
2022-10-06T13:54:45.883Z,20.4
2022-10-06T13:56:45.820Z,20.15
2022-10-06T13:58:45.893Z,20.43
2022-10-06T14:00:45.856Z,20.37
2022-10-06T14:02:45.968Z,20.48
2022-10-06T14:04:45.878Z,20.19
2022-10-06T14:06:47.855Z,20.1
2022-10-06T14:08:47.914Z,20.11
2022-10-06T14:10:47.835Z,19.96
2022-10-06T14:12:47.797Z,19.91
2022-10-06T14:14:47.805Z,19.81
2022-10-06T14:16:47.806Z,19.87
2022-10-06T14:18:47.847Z,19.85
2022-10-06T14:21:29.142Z,19.83
2022-10-06T14:23:25.606Z,19.83
2022-10-06T14:25:25.854Z,19.73
2022-10-06T14:27:25.592Z,19.8
2022-10-06T14:29:25.582Z,19.68
2022-10-06T14:31:25.688Z,19.52
2022-10-06T14:33:25.563Z,19.71
2022-10-06T14:36:42.023Z,19.68
2022-10-06T14:38:41.971Z,19.7
2022-10-06T14:40:41.992Z,19.39
2022-10-06T14:42:42.053Z,19.53
2022-10-06T14:44:41.980Z,19.59
2022-10-06T14:46:42.101Z,19.59
2022-10-06T14:48:41.979Z,19.46
2022-10-06T14:52:04.129Z,19.28
2022-10-06T14:54:04.096Z,19.24
2022-10-06T14:56:04.098Z,19.1
2022-10-06T14:58:04.114Z,19.11
2022-10-06T15:00:04.096Z,19.01
2022-10-06T15:02:04.070Z,19.03
2022-10-06T15:04:04.125Z,18.99
2022-10-06T15:06:55.554Z,19.06
2022-10-06T15:08:55.520Z,19.02
2022-10-06T15:10:55.525Z,18.89
2022-10-06T15:12:55.553Z,18.93
2022-10-06T15:14:55.526Z,18.81
2022-10-06T15:16:55.583Z,18.74
2022-10-06T15:18:55.554Z,18.78
2022-10-06T15:22:23.694Z,18.72
2022-10-06T15:24:23.636Z,18.56
2022-10-06T15:26:23.651Z,18.36
2022-10-06T15:28:23.872Z,18.23
2022-10-06T15:30:23.641Z,18.09
2022-10-06T15:32:23.644Z,18
2022-10-06T15:34:23.638Z,17.86
2022-10-06T15:36:48.591Z,17.47
2022-10-06T15:38:48.602Z,17.4
2022-10-06T15:40:48.583Z,17.34
2022-10-06T15:42:48.639Z,17.22
2022-10-06T15:44:48.635Z,17.16
2022-10-06T15:46:48.687Z,17.12
2022-10-06T15:48:48.603Z,17.16
2022-10-06T15:50:48.587Z,16.93
2022-10-06T15:52:32.965Z,16.89
2022-10-06T15:54:32.947Z,16.94
2022-10-06T15:56:32.940Z,16.92
2022-10-06T15:58:33.049Z,16.84
2022-10-06T16:00:33.030Z,16.86
2022-10-06T16:02:33.058Z,16.73
2022-10-06T16:04:32.922Z,16.66
2022-10-06T16:08:04.584Z,16.38
2022-10-06T16:10:04.539Z,16.28
2022-10-06T16:12:04.582Z,16.07
2022-10-06T16:14:04.533Z,16.03
2022-10-06T16:16:04.923Z,15.94
2022-10-06T16:18:04.537Z,15.86
2022-10-06T16:20:04.536Z,15.76
2022-10-06T16:22:55.369Z,15.68
2022-10-06T16:24:55.336Z,15.62
2022-10-06T16:26:55.385Z,15.54
2022-10-06T16:28:55.344Z,15.43
2022-10-06T16:30:55.369Z,15.35
2022-10-06T16:32:55.384Z,15.3
2022-10-06T16:34:55.331Z,15.28
2022-10-06T16:37:33.309Z,15.19
2022-10-06T16:39:33.338Z,14.9
2022-10-06T16:41:33.294Z,15.09
2022-10-06T16:43:33.301Z,15.05
2022-10-06T16:45:33.294Z,14.95
2022-10-06T16:47:33.266Z,14.91
2022-10-06T16:49:33.327Z,14.87
2022-10-06T16:51:33.308Z,14.74
2022-10-06T16:53:28.999Z,14.72
2022-10-06T16:55:28.980Z,14.67
2022-10-06T16:57:29.039Z,14.6
2022-10-06T16:59:29.028Z,14.58
2022-10-06T17:01:29.023Z,14.52
2022-10-06T17:03:28.971Z,14.55
2022-10-06T17:05:28.987Z,14.55
2022-10-06T17:07:47.797Z,14.5
2022-10-06T17:10:08.324Z,14.44
2022-10-06T17:11:47.807Z,14.38
2022-10-06T17:13:47.764Z,14.33
2022-10-06T17:15:47.755Z,14.27
2022-10-06T17:17:47.797Z,14.16
2022-10-06T17:19:47.756Z,14.12
2022-10-06T17:21:50.666Z,14.11
2022-10-06T17:23:45.098Z,14.13
2022-10-06T17:25:45.049Z,14.03
2022-10-06T17:27:45.079Z,14.04
2022-10-06T17:29:45.045Z,14.06
2022-10-06T17:31:45.327Z,14.02
2022-10-06T17:33:45.075Z,13.98
2022-10-06T17:35:45.053Z,13.97
2022-10-06T17:38:59.038Z,13.91
2022-10-06T17:40:58.978Z,13.87
2022-10-06T17:42:59.011Z,13.8
2022-10-06T17:44:58.973Z,13.78
2022-10-06T17:46:58.968Z,13.73
2022-10-06T17:48:58.970Z,13.73
2022-10-06T17:50:58.976Z,13.76
2022-10-06T17:53:48.807Z,13.63
2022-10-06T17:55:48.777Z,13.53
2022-10-06T17:57:48.823Z,13.51
2022-10-06T17:59:48.809Z,13.5
2022-10-06T18:01:48.850Z,13.52
2022-10-06T18:03:48.932Z,13.56
2022-10-06T18:05:48.749Z,13.58
2022-10-06T18:09:04.645Z,13.49
2022-10-06T18:11:04.619Z,13.47
2022-10-06T18:13:04.714Z,13.43
2022-10-06T18:15:04.564Z,13.45
2022-10-06T18:17:04.615Z,13.49
2022-10-06T18:19:04.854Z,13.38
2022-10-06T18:21:04.674Z,13.53
2022-10-06T18:24:19.622Z,13.44
2022-10-06T18:26:19.654Z,13.5
2022-10-06T18:28:19.593Z,13.51
2022-10-06T18:30:19.550Z,13.5
2022-10-06T18:36:19.576Z,13.53
2022-10-06T18:39:32.917Z,13.47
2022-10-06T18:41:33.003Z,13.4
2022-10-06T18:43:32.904Z,13.37
2022-10-06T18:45:36.879Z,13.4
2022-10-06T18:47:32.967Z,13.39
2022-10-06T18:49:32.915Z,13.26
2022-10-06T18:51:32.991Z,13.22
2022-10-06T18:54:19.427Z,13.23
2022-10-06T18:56:19.488Z,13.13
2022-10-06T18:58:19.459Z,13.1
2022-10-06T19:00:19.430Z,13.17
2022-10-06T19:02:19.496Z,13.09
2022-10-06T19:04:19.423Z,13.06
2022-10-06T19:06:19.481Z,12.96
2022-10-06T19:09:23.081Z,12.83
2022-10-06T19:11:23.070Z,12.86
2022-10-06T19:13:23.130Z,12.88
2022-10-06T19:15:23.077Z,12.7
2022-10-06T19:17:23.076Z,12.64
2022-10-06T19:19:23.064Z,12.64
2022-10-06T19:21:23.148Z,12.57
2022-10-06T19:24:51.276Z,12.68
2022-10-06T19:26:51.269Z,12.6
2022-10-06T19:28:51.336Z,12.5
2022-10-06T19:30:51.358Z,12.56
2022-10-06T19:32:51.307Z,12.51
2022-10-06T19:34:51.396Z,12.38
2022-10-06T19:36:51.290Z,12.31
2022-10-06T19:39:40.487Z,12.27
2022-10-06T19:41:40.616Z,12.32
2022-10-06T19:43:40.408Z,12.29
2022-10-06T19:45:40.730Z,12.28
2022-10-06T19:47:40.839Z,12.28
2022-10-06T19:49:40.406Z,12.19
2022-10-06T19:51:40.447Z,12.17
2022-10-06T19:55:37.929Z,12.08
2022-10-06T19:57:37.937Z,12.07
2022-10-06T19:59:37.842Z,12.08
2022-10-06T20:01:38.045Z,12.02
2022-10-06T20:03:38.005Z,11.95
2022-10-06T20:05:37.923Z,11.96
2022-10-06T20:07:37.857Z,11.94
2022-10-06T20:10:44.783Z,11.98
2022-10-06T20:12:44.690Z,11.93
2022-10-06T20:14:44.752Z,11.96
2022-10-06T20:16:44.819Z,11.92
2022-10-06T20:18:44.762Z,11.85
2022-10-06T20:20:44.702Z,11.84
2022-10-06T20:22:44.753Z,11.82
2022-10-06T20:25:19.747Z,11.74
2022-10-06T20:27:19.761Z,11.66
2022-10-06T20:29:19.717Z,11.69
2022-10-06T20:31:19.827Z,11.69
2022-10-06T20:33:19.764Z,11.62
2022-10-06T20:35:19.718Z,11.59
2022-10-06T20:37:19.724Z,11.7
2022-10-06T20:41:07.178Z,11.48
2022-10-06T20:43:07.125Z,11.54
2022-10-06T20:45:07.184Z,11.54
2022-10-06T20:47:07.134Z,11.56
2022-10-06T20:49:07.177Z,11.57
2022-10-06T20:51:07.208Z,11.56
2022-10-06T20:53:07.148Z,11.55
2022-10-06T20:56:14.865Z,11.47
2022-10-06T20:58:14.871Z,11.38
2022-10-06T21:00:14.817Z,11.37
2022-10-06T21:02:14.982Z,11.36
2022-10-06T21:04:14.812Z,11.42
2022-10-06T21:06:14.820Z,11.42
2022-10-06T21:08:14.786Z,11.39
2022-10-06T21:11:28.432Z,11.36
2022-10-06T21:13:28.406Z,11.25
2022-10-06T21:15:28.438Z,11.29
2022-10-06T21:17:28.395Z,11.23
2022-10-06T21:19:28.439Z,11.23
2022-10-06T21:21:28.364Z,11.27
2022-10-06T21:23:28.370Z,11.25
2022-10-06T21:25:47.082Z,11.17
2022-10-06T21:27:47.251Z,11.08
2022-10-06T21:29:47.020Z,11.05
2022-10-06T21:31:47.070Z,11.07
2022-10-06T21:33:47.012Z,11.09
2022-10-06T21:35:47.065Z,11.16
2022-10-06T21:37:47.271Z,10.97
2022-10-06T21:39:47.016Z,10.83
2022-10-06T21:40:52.362Z,10.75
2022-10-06T21:42:52.384Z,10.61
2022-10-06T21:44:52.347Z,10.8
2022-10-06T21:46:52.494Z,10.79
2022-10-06T21:48:52.348Z,10.82
2022-10-06T21:50:52.361Z,10.84
2022-10-06T21:52:52.338Z,10.8
2022-10-06T21:54:52.321Z,10.93
2022-10-06T21:56:51.621Z,10.91
2022-10-06T21:58:51.544Z,11.04
2022-10-06T22:00:54.814Z,10.89
2022-10-06T22:02:51.624Z,10.79
2022-10-06T22:04:51.539Z,10.76
2022-10-06T22:06:51.611Z,10.76
2022-10-06T22:08:51.537Z,10.92
2022-10-06T22:11:43.782Z,10.84
2022-10-06T22:13:43.766Z,10.64
2022-10-06T22:15:43.812Z,10.71
2022-10-06T22:17:43.984Z,10.64
2022-10-06T22:19:43.730Z,10.69
2022-10-06T22:21:43.733Z,10.68
2022-10-06T22:23:43.758Z,10.71
2022-10-06T22:26:36.918Z,10.61
2022-10-06T22:28:36.933Z,10.77
2022-10-06T22:30:36.878Z,10.78
2022-10-06T22:32:36.916Z,10.71
2022-10-06T22:34:36.877Z,10.71
2022-10-06T22:36:36.877Z,10.69
2022-10-06T22:38:36.916Z,10.68
2022-10-06T22:42:06.967Z,10.76
2022-10-06T22:44:06.815Z,10.83
2022-10-06T22:46:06.953Z,10.83
2022-10-06T22:48:06.792Z,10.73
2022-10-06T22:50:06.786Z,10.74
2022-10-06T22:52:06.833Z,10.74
2022-10-06T22:54:06.789Z,10.74
2022-10-06T22:57:13.309Z,10.66
2022-10-06T22:59:13.184Z,10.7
2022-10-06T23:01:13.268Z,10.7
2022-10-06T23:03:13.246Z,10.63
2022-10-06T23:05:13.186Z,10.65
2022-10-06T23:07:13.227Z,10.72
2022-10-06T23:09:13.181Z,10.72
2022-10-06T23:11:57.259Z,10.62
2022-10-06T23:13:57.249Z,10.68
2022-10-06T23:15:57.255Z,10.61
2022-10-06T23:17:57.229Z,10.51
2022-10-06T23:19:57.229Z,10.56
2022-10-06T23:21:57.263Z,10.71
2022-10-06T23:23:57.226Z,10.68
2022-10-06T23:25:57.213Z,10.64
2022-10-06T23:27:22.969Z,10.62
2022-10-06T23:29:22.994Z,10.52
2022-10-06T23:31:22.993Z,10.53
2022-10-06T23:33:22.955Z,10.58
2022-10-06T23:35:22.970Z,10.53
2022-10-06T23:37:25.998Z,10.63
2022-10-06T23:39:22.987Z,10.61
2022-10-06T23:42:11.319Z,10.6
2022-10-06T23:44:11.299Z,10.51
2022-10-06T23:46:11.464Z,10.46
2022-10-06T23:48:11.313Z,10.48
2022-10-06T23:50:11.341Z,10.34
2022-10-06T23:52:11.305Z,10.44
2022-10-06T23:54:11.305Z,10.36
2022-10-06T23:56:11.370Z,10.45
2022-10-06T23:58:14.904Z,10.35
